Time;durP1;ratioP1;P1;durP2;ratioP2;P2;SDS_P1;SDS_P2;PMS_P1;PMS_P2;Temp;Humidity;BMP_temperature;BMP_pressure;BME280_temperature;BME280_humidity;BME280_pressure;Samples;Min_cycle;Max_cycle;Signal;HPM_P1;HPM_P2
2022/06/16 00:00:52;;;;;;;9.63;4.20;;;;;;;19.00;81.98;96273.84;5017095;28;20207;-71
2022/06/16 00:03:19;;;;;;;7.70;4.20;;;;;;;18.95;82.63;96273.72;5015498;28;20231;-71
2022/06/16 00:05:48;;;;;;;7.10;4.25;;;;;;;19.05;82.39;96275.84;5009935;28;20207;-71
2022/06/16 00:08:16;;;;;;;8.20;4.25;;;;;;;18.99;82.54;96271.38;5009471;28;20257;-72
2022/06/16 00:11:16;;;;;;;8.70;4.13;;;;;;;19.01;82.81;96274.66;5009269;28;20256;-71
2022/06/16 00:13:30;;;;;;;5.78;4.07;;;;;;;18.87;82.87;96267.06;5009916;28;20290;-71
2022/06/16 00:15:57;;;;;;;7.18;4.32;;;;;;;18.87;82.41;96262.53;5009380;28;20293;-71
2022/06/16 00:18:24;;;;;;;7.05;3.60;;;;;;;18.81;82.56;96260.75;5016566;28;20262;-71
2022/06/16 00:20:52;;;;;;;7.88;4.22;;;;;;;19.01;81.81;96253.28;5009298;28;20214;-71
2022/06/16 00:23:18;;;;;;;8.68;3.90;;;;;;;18.40;83.99;96244.69;5010527;28;20226;-71
2022/06/16 00:25:45;;;;;;;7.38;4.10;;;;;;;18.40;83.86;96244.69;5015361;28;20593;-71
2022/06/16 00:28:12;;;;;;;9.32;3.97;;;;;;;18.59;83.85;96237.47;5015883;28;20222;-71
2022/06/16 00:30:39;;;;;;;6.68;3.90;;;;;;;18.65;83.64;96247.25;5015837;28;20209;-71
2022/06/16 00:33:06;;;;;;;6.78;3.95;;;;;;;18.66;83.24;96249.69;5015342;28;20209;-71
2022/06/16 00:35:33;;;;;;;7.10;3.88;;;;;;;18.80;82.60;96255.66;5015713;28;20689;-71
2022/06/16 00:38:01;;;;;;;5.80;4.13;;;;;;;18.81;81.94;96252.75;5020061;28;20236;-71
2022/06/16 00:40:27;;;;;;;7.53;4.30;;;;;;;18.47;83.48;96258.78;5018723;28;20198;-71
2022/06/16 00:42:54;;;;;;;5.35;3.90;;;;;;;17.91;84.33;96248.56;5019060;28;20221;-72
2022/06/16 00:45:47;;;;;;;5.90;4.10;;;;;;;18.47;84.19;96245.44;5019613;28;20206;-72
2022/06/16 00:48:17;;;;;;;6.80;4.47;;;;;;;18.54;84.17;96240.81;5024626;28;20217;-71
2022/06/16 00:50:46;;;;;;;7.05;4.18;;;;;;;18.58;84.10;96239.34;5016626;28;20220;-72
2022/06/16 00:53:14;;;;;;;9.48;4.85;;;;;;;18.45;83.84;96246.69;5015267;28;20223;-72
2022/06/16 00:55:41;;;;;;;8.38;4.28;;;;;;;18.24;83.40;96238.34;5018014;28;20226;-71
2022/06/16 01:00:39;;;;;;;8.13;4.15;;;;;;;18.03;85.91;96247.59;5063233;28;20293;-70
2022/06/16 01:03:05;;;;;;;6.13;4.53;;;;;;;18.30;84.20;96254.28;5062067;28;20266;-70
2022/06/16 01:05:31;;;;;;;8.27;4.40;;;;;;;17.92;86.18;96250.16;5064875;28;20196;-69
2022/06/16 01:07:58;;;;;;;5.60;4.35;;;;;;;18.14;85.30;96248.69;5055043;28;20225;-69
2022/06/16 01:10:34;;;;;;;7.57;3.92;;;;;;;18.36;84.95;96248.84;5054615;28;20201;-69
2022/06/16 01:16:24;;;;;;;6.20;4.18;;;;;;;18.60;85.49;96258.59;5012228;28;20213;-69
2022/06/16 01:19:00;;;;;;;6.15;3.95;;;;;;;18.47;85.68;96258.78;5011881;28;20252;-69
2022/06/16 01:21:38;;;;;;;7.45;4.13;;;;;;;18.38;84.69;96256.66;5035630;28;20212;-70
2022/06/16 01:24:33;;;;;;;6.85;3.78;;;;;;;18.22;86.65;96257.25;5054013;28;20224;-69
2022/06/16 01:27:46;;;;;;;5.65;4.15;;;;;;;18.35;85.83;96247.25;5054170;28;20244;-70
2022/06/16 01:30:17;;;;;;;8.57;4.22;;;;;;;18.36;86.35;96254.19;5054177;28;20216;-69
2022/06/16 01:32:51;;;;;;;9.27;4.43;;;;;;;18.27;87.19;96251.25;5054195;28;20201;-70
2022/06/16 01:35:27;;;;;;;6.55;4.20;;;;;;;18.30;87.15;96248.13;5057332;28;20700;-70
2022/06/16 01:38:03;;;;;;;8.38;5.00;;;;;;;18.25;87.84;96245.31;5057259;28;20282;-70
2022/06/16 01:40:33;;;;;;;9.45;4.80;;;;;;;18.30;87.40;96243.59;5055933;28;20201;-70
2022/06/16 01:43:06;;;;;;;8.35;4.72;;;;;;;18.31;87.10;96236.44;5050591;28;20212;-70
2022/06/16 01:45:41;;;;;;;7.40;4.85;;;;;;;18.32;86.30;96240.69;5051073;28;20242;-70
2022/06/16 01:48:11;;;;;;;9.63;4.40;;;;;;;18.15;86.84;96228.97;5050631;28;20584;-69
2022/06/16 01:50:42;;;;;;;7.75;4.65;;;;;;;18.07;86.63;96231.97;5050790;28;20210;-70
2022/06/16 01:53:14;;;;;;;7.78;4.25;;;;;;;18.08;85.91;96228.25;5050154;28;20209;-70
2022/06/16 01:55:46;;;;;;;9.85;4.70;;;;;;;18.06;86.51;96222.31;5050972;28;20205;-69
2022/06/16 01:58:21;;;;;;;7.20;4.88;;;;;;;18.18;86.65;96215.25;5050454;28;20221;-70
2022/06/16 02:00:50;;;;;;;5.85;4.70;;;;;;;18.03;87.55;96222.78;5051521;28;20201;-69
2022/06/16 02:03:22;;;;;;;12.32;5.35;;;;;;;17.97;89.37;96226.31;5055301;28;20581;-70
2022/06/16 02:05:52;;;;;;;10.35;4.70;;;;;;;17.59;89.73;96231.06;5054997;28;20197;-69
2022/06/16 02:08:24;;;;;;;12.85;4.68;;;;;;;17.72;88.70;96230.91;5051128;28;20239;-70
2022/06/16 02:10:54;;;;;;;11.38;5.03;;;;;;;17.74;88.94;96228.84;5050636;28;20209;-70
2022/06/16 02:13:25;;;;;;;10.05;5.10;;;;;;;17.80;88.77;96230.63;5050077;28;20205;-70
2022/06/16 02:15:59;;;;;;;9.98;5.22;;;;;;;17.69;88.69;96234.00;5050018;28;20205;-70
2022/06/16 02:18:29;;;;;;;9.80;5.25;;;;;;;17.78;88.87;96230.84;5050519;28;20232;-70
2022/06/16 02:21:02;;;;;;;12.80;5.15;;;;;;;17.76;89.46;96227.59;5050013;28;20212;-70
2022/06/16 02:23:28;;;;;;;9.75;4.97;;;;;;;17.67;88.10;96225.44;5049856;28;20221;-70
2022/06/16 02:25:58;;;;;;;9.88;4.53;;;;;;;17.76;86.30;96218.78;5050040;28;20572;-70
2022/06/16 02:28:25;;;;;;;8.00;4.50;;;;;;;17.68;88.21;96221.75;5050076;28;20225;-70
2022/06/16 02:31:04;;;;;;;12.82;4.88;;;;;;;17.46;89.19;96230.34;5050030;28;20201;-70
2022/06/16 02:33:41;;;;;;;7.30;4.63;;;;;;;17.52;88.15;96232.97;5049704;28;20292;-70
2022/06/16 02:36:23;;;;;;;11.60;4.93;;;;;;;17.37;88.42;96240.47;5050170;28;20583;-70
2022/06/16 02:39:02;;;;;;;11.52;5.03;;;;;;;17.22;90.43;96241.78;5049897;28;20201;-70
2022/06/16 02:41:38;;;;;;;6.18;4.60;;;;;;;17.44;89.19;96227.91;5049814;28;20732;-70
2022/06/16 02:44:11;;;;;;;9.48;5.25;;;;;;;17.37;90.07;96223.69;5049586;28;20598;-70
2022/06/16 02:46:53;;;;;;;6.82;4.82;;;;;;;17.56;89.27;96228.81;5049753;28;20221;-70
2022/06/16 02:49:31;;;;;;;10.65;5.13;;;;;;;17.49;90.18;96237.91;5049486;28;20223;-70
2022/06/16 02:52:09;;;;;;;7.50;4.85;;;;;;;17.28;89.15;96225.78;5051040;28;20212;-70
2022/06/16 02:54:43;;;;;;;9.20;4.90;;;;;;;17.30;88.91;96207.75;5055118;28;20699;-70
2022/06/16 02:57:13;;;;;;;7.25;5.07;;;;;;;17.16;89.57;96216.84;5057980;28;20742;-69
2022/06/16 02:59:45;;;;;;;12.43;5.20;;;;;;;17.13;90.78;96216.47;5057568;28;20213;-70
2022/06/16 03:02:16;;;;;;;9.93;5.28;;;;;;;17.27;89.96;96208.22;5058518;28;20216;-70
2022/06/16 03:04:47;;;;;;;11.57;4.30;;;;;;;17.31;87.12;96219.22;5057186;28;20225;-70
2022/06/16 03:07:15;;;;;;;7.88;4.45;;;;;;;17.36;87.18;96217.53;5056645;28;20217;-70
2022/06/16 03:09:41;;;;;;;9.80;5.25;;;;;;;16.93;88.13;96217.66;5057098;28;20213;-70
2022/06/16 03:12:10;;;;;;;16.27;4.70;;;;;;;17.00;87.87;96221.09;5052797;28;20201;-70
2022/06/16 03:14:37;;;;;;;8.65;5.28;;;;;;;17.01;87.78;96222.75;5049326;28;20208;-70
2022/06/16 03:17:04;;;;;;;12.70;4.70;;;;;;;16.91;88.13;96217.06;5049362;28;20243;-70
2022/06/16 03:19:32;;;;;;;9.45;5.25;;;;;;;17.02;90.22;96216.34;5048698;28;20700;-70
2022/06/16 03:21:58;;;;;;;10.25;5.38;;;;;;;16.95;90.79;96223.59;5057438;28;20208;-70
2022/06/16 03:24:26;;;;;;;10.57;5.72;;;;;;;17.10;91.49;96223.03;5057752;28;20239;-69
2022/06/16 03:26:52;;;;;;;17.27;5.72;;;;;;;16.78;90.71;96220.63;5057677;28;20225;-70
2022/06/16 03:29:19;;;;;;;10.48;4.72;;;;;;;16.81;88.63;96222.06;5049689;28;20209;-70
2022/06/16 03:31:46;;;;;;;12.85;5.20;;;;;;;16.84;88.16;96221.63;5048697;28;20205;-70
2022/06/16 03:34:12;;;;;;;8.38;4.85;;;;;;;16.90;87.96;96226.09;5048556;28;20205;-70
2022/06/16 03:36:40;;;;;;;6.75;4.28;;;;;;;16.96;87.15;96219.91;5048743;28;20221;-70
2022/06/16 03:39:07;;;;;;;8.60;5.55;;;;;;;16.81;90.43;96217.53;5048607;28;20238;-70
2022/06/16 03:41:34;;;;;;;15.00;5.72;;;;;;;16.79;91.60;96221.44;5049101;28;20205;-70
2022/06/16 03:44:01;;;;;;;9.05;5.60;;;;;;;16.76;91.67;96235.19;5048573;28;20220;-70
2022/06/16 03:46:28;;;;;;;11.77;4.50;;;;;;;16.68;89.12;96232.78;5048400;28;20216;-70
2022/06/16 03:48:54;;;;;;;9.90;5.93;;;;;;;16.73;90.61;96230.31;5048646;28;20197;-70
2022/06/16 03:51:20;;;;;;;12.32;6.38;;;;;;;16.77;92.66;96226.97;5048813;28;20201;-70
2022/06/16 03:53:48;;;;;;;12.80;6.43;;;;;;;16.90;93.72;96215.44;5048066;28;20201;-70
2022/06/16 03:56:15;;;;;;;11.43;6.63;;;;;;;17.00;93.56;96226.44;5048727;28;20201;-70
2022/06/16 03:58:42;;;;;;;10.10;5.43;;;;;;;16.97;92.00;96232.16;5048311;28;20217;-70
2022/06/16 04:01:09;;;;;;;10.57;6.20;;;;;;;16.86;93.47;96244.31;5048745;28;20208;-69
2022/06/16 04:06:20;;;;;;;8.57;5.72;;;;;;;17.08;92.08;96252.78;5048437;28;20207;-70
2022/06/16 04:08:47;;;;;;;9.80;6.35;;;;;;;17.14;92.30;96247.41;5048507;28;20204;-70
2022/06/16 04:11:30;;;;;;;7.78;5.55;;;;;;;17.09;93.68;96245.41;5048408;28;20205;-70
2022/06/16 04:14:00;;;;;;;13.18;6.03;;;;;;;17.30;92.47;96242.38;5047870;28;20201;-70
2022/06/16 04:16:27;;;;;;;12.38;6.85;;;;;;;17.50;92.89;96235.03;5048297;28;20201;-70
2022/06/16 04:18:54;;;;;;;13.23;7.35;;;;;;;17.58;93.16;96236.59;5048380;28;20206;-70
2022/06/16 04:21:21;;;;;;;14.15;7.30;;;;;;;17.55;93.27;96240.50;5048534;28;20201;-70
2022/06/16 04:23:47;;;;;;;14.85;9.05;;;;;;;17.75;94.66;96244.59;5047854;28;20205;-70
2022/06/16 04:26:15;;;;;;;11.98;8.02;;;;;;;17.85;93.80;96250.25;5048097;28;20201;-70
2022/06/16 04:28:41;;;;;;;10.85;6.70;;;;;;;17.80;93.53;96246.63;5048430;28;20587;-69
2022/06/16 04:31:08;;;;;;;11.95;6.60;;;;;;;17.67;93.71;96244.09;5048110;28;20209;-69
2022/06/16 04:33:35;;;;;;;10.50;6.80;;;;;;;17.72;93.62;96250.38;5047631;28;20212;-70
2022/06/16 04:36:02;;;;;;;12.90;7.38;;;;;;;18.01;94.08;96252.34;5048118;28;20201;-70
2022/06/16 04:38:28;;;;;;;12.85;7.97;;;;;;;18.16;95.19;96257.28;5054332;28;20221;-70
2022/06/16 04:40:55;;;;;;;14.15;8.75;;;;;;;18.43;94.50;96254.09;5055817;28;20699;-71
2022/06/16 04:43:22;;;;;;;15.10;8.90;;;;;;;18.78;93.66;96263.09;5055425;28;20204;-70
2022/06/16 04:45:49;;;;;;;15.50;8.05;;;;;;;18.98;92.50;96259.09;5055440;28;20217;-70
2022/06/16 04:48:15;;;;;;;12.65;7.45;;;;;;;19.24;93.59;96264.88;5056528;28;20217;-70
2022/06/16 04:50:42;;;;;;;11.43;8.13;;;;;;;19.45;90.44;96275.03;5057215;28;20208;-70
2022/06/16 04:53:09;;;;;;;11.93;7.25;;;;;;;19.67;89.89;96260.84;5055180;28;20213;-70
2022/06/16 04:55:36;;;;;;;14.35;8.15;;;;;;;19.68;87.35;96267.84;5055034;28;20212;-70
2022/06/16 04:58:02;;;;;;;13.73;8.00;;;;;;;19.85;87.21;96266.09;5054559;28;20232;-69
2022/06/16 05:00:30;;;;;;;18.02;7.93;;;;;;;20.02;88.20;96271.56;5049375;28;20217;-70
2022/06/16 05:02:57;;;;;;;16.85;7.25;;;;;;;19.92;88.11;96279.38;5047529;28;20233;-70
2022/06/16 05:05:24;;;;;;;13.75;7.70;;;;;;;19.80;88.81;96265.97;5047834;28;20814;-69
2022/06/16 05:07:51;;;;;;;13.98;7.85;;;;;;;19.91;87.95;96264.41;5047243;28;20229;-70
2022/06/16 05:10:17;;;;;;;11.90;7.07;;;;;;;19.94;88.94;96267.41;5047958;28;20295;-70
2022/06/16 05:12:44;;;;;;;14.40;8.00;;;;;;;19.76;87.08;96254.13;5051076;28;20208;-69
2022/06/16 05:15:11;;;;;;;15.20;7.40;;;;;;;19.88;86.65;96262.13;5052073;28;20207;-69
2022/06/16 05:17:38;;;;;;;18.20;7.28;;;;;;;20.28;86.42;96256.66;5051865;28;20546;-69
2022/06/16 05:20:06;;;;;;;11.90;7.57;;;;;;;20.32;84.98;96270.38;5051865;28;20209;-70
2022/06/16 05:22:33;;;;;;;12.38;7.55;;;;;;;20.46;84.56;96274.41;5051013;28;20595;-70
2022/06/16 05:24:59;;;;;;;14.63;7.10;;;;;;;20.77;83.16;96263.28;5051626;28;20248;-70
2022/06/16 05:27:26;;;;;;;10.88;5.85;;;;;;;21.06;80.62;96268.41;5051333;28;20720;-70
2022/06/16 05:29:52;;;;;;;10.25;5.78;;;;;;;21.26;78.59;96272.25;5051642;28;20228;-70
2022/06/16 05:32:19;;;;;;;11.75;6.20;;;;;;;21.20;80.62;96270.53;5051342;28;20201;-69
2022/06/16 05:34:47;;;;;;;10.65;5.95;;;;;;;21.44;78.77;96261.28;5051640;28;20201;-69
2022/06/16 05:37:13;;;;;;;12.70;6.35;;;;;;;21.18;79.53;96269.97;5051594;28;20244;-69
2022/06/16 05:39:40;;;;;;;11.48;7.13;;;;;;;21.10;80.10;96267.66;5051351;28;20679;-69
2022/06/16 05:42:08;;;;;;;9.23;5.80;;;;;;;20.99;80.94;96263.19;5051155;28;20213;-69
2022/06/16 05:44:34;;;;;;;11.10;6.22;;;;;;;21.22;80.50;96265.75;5050960;28;20589;-69
2022/06/16 05:47:01;;;;;;;7.97;5.68;;;;;;;21.81;77.96;96262.44;5051310;28;20221;-70
2022/06/16 05:49:28;;;;;;;10.10;5.53;;;;;;;22.19;76.63;96266.78;5051345;28;20220;-69
2022/06/16 05:51:56;;;;;;;12.85;6.57;;;;;;;22.13;77.28;96272.31;5051530;28;20208;-69
2022/06/16 05:54:23;;;;;;;14.52;5.60;;;;;;;22.04;76.76;96290.69;5051117;28;20213;-70
2022/06/16 05:56:49;;;;;;;8.55;6.03;;;;;;;21.95;76.65;96285.22;5051041;28;20217;-69
2022/06/16 05:59:16;;;;;;;9.57;6.05;;;;;;;21.81;77.23;96283.91;5050716;28;20212;-70
2022/06/16 06:01:42;;;;;;;9.73;6.03;;;;;;;21.68;77.65;96284.25;5050899;28;20730;-69
2022/06/16 06:04:09;;;;;;;7.50;5.32;;;;;;;21.96;77.44;96292.19;5050557;28;20205;-69
2022/06/16 06:06:36;;;;;;;9.75;6.07;;;;;;;21.83;76.43;96293.34;5050806;28;20231;-69
2022/06/16 06:17:20;;;;;;;9.02;5.45;;;;;;;22.09;74.51;96290.78;5051317;28;20235;-69
2022/06/16 06:19:46;;;;;;;9.90;6.22;;;;;;;22.22;73.88;96289.63;5050636;28;20213;-68
2022/06/16 06:22:15;;;;;;;12.23;5.45;;;;;;;22.76;72.96;96281.50;5050090;28;20205;-69
2022/06/16 06:24:44;;;;;;;8.30;5.53;;;;;;;22.39;72.41;96280.50;5051094;28;20259;-69
2022/06/16 06:27:15;;;;;;;9.80;5.28;;;;;;;22.31;72.49;96289.00;5050794;28;20233;-69
2022/06/16 06:29:42;;;;;;;12.82;5.50;;;;;;;22.15;73.44;96295.16;5050336;28;20209;-69
2022/06/16 06:32:09;;;;;;;7.75;5.03;;;;;;;21.96;74.46;96292.19;5050465;28;20208;-69
2022/06/16 06:34:36;;;;;;;9.20;5.50;;;;;;;22.12;75.02;96298.34;5049466;28;20201;-69
2022/06/16 06:37:03;;;;;;;10.25;5.10;;;;;;;21.87;74.66;96293.66;5051416;28;20248;-69
2022/06/16 06:39:29;;;;;;;10.25;5.90;;;;;;;22.06;74.62;96287.78;5050467;28;20208;-69
2022/06/16 06:41:57;;;;;;;8.68;5.40;;;;;;;22.41;73.66;96280.25;5050784;28;20209;-69
2022/06/16 06:44:24;;;;;;;10.73;5.53;;;;;;;22.66;71.71;96286.75;5049870;28;20209;-69
2022/06/16 06:46:51;;;;;;;10.30;5.85;;;;;;;22.81;70.97;96282.38;5050085;28;20225;-69
2022/06/16 06:49:17;;;;;;;6.93;5.07;;;;;;;23.12;70.71;96276.28;5050502;28;20201;-69
2022/06/16 06:51:44;;;;;;;10.20;4.95;;;;;;;23.26;68.80;96279.41;5050427;28;20209;-68
2022/06/16 06:54:10;;;;;;;12.68;5.78;;;;;;;23.38;68.38;96289.75;5049649;28;20577;-70
2022/06/16 06:56:37;;;;;;;8.32;5.78;;;;;;;23.15;68.86;96283.84;5049790;28;20793;-69
2022/06/16 06:59:06;;;;;;;9.77;5.90;;;;;;;23.23;68.35;96287.94;5050397;28;20217;-69
2022/06/16 07:01:34;;;;;;;7.93;4.93;;;;;;;22.93;68.23;96293.00;5050038;28;20679;-70
2022/06/16 07:04:02;;;;;;;8.45;5.20;;;;;;;22.75;68.94;96285.25;5049333;28;20216;-69
2022/06/16 07:06:29;;;;;;;6.93;5.00;;;;;;;23.12;68.39;96286.25;5049588;28;20220;-69
2022/06/16 07:08:56;;;;;;;9.10;6.03;;;;;;;22.99;68.05;96294.72;5050065;28;20201;-69
2022/06/16 07:11:22;;;;;;;8.73;5.53;;;;;;;23.16;68.21;96301.59;5050086;28;20201;-69
2022/06/16 07:13:49;;;;;;;8.80;4.95;;;;;;;23.44;68.23;96302.16;5049076;28;20202;-69
2022/06/16 07:16:17;;;;;;;8.30;5.43;;;;;;;23.77;66.74;96315.41;5049197;28;20842;-69
2022/06/16 07:18:45;;;;;;;6.90;4.85;;;;;;;24.08;66.84;96314.56;5049249;28;20209;-69
2022/06/16 07:21:11;;;;;;;8.38;4.95;;;;;;;24.40;67.50;96312.66;5048001;28;20208;-70
2022/06/16 07:23:38;;;;;;;7.95;5.47;;;;;;;24.50;64.51;96323.50;5048018;28;20212;-69
2022/06/16 07:26:05;;;;;;;9.40;5.18;;;;;;;24.51;64.94;96322.44;5049227;28;20249;-69
2022/06/16 07:28:31;;;;;;;7.88;4.70;;;;;;;24.45;64.64;96343.13;5048873;28;20221;-69
2022/06/16 07:30:58;;;;;;;9.57;5.32;;;;;;;24.48;66.02;96347.19;5048786;28;20205;-69
2022/06/16 07:33:25;;;;;;;9.88;4.72;;;;;;;24.45;65.39;96337.72;5048416;28;20213;-70
2022/06/16 07:35:55;;;;;;;6.75;4.30;;;;;;;24.50;65.58;96324.28;5049517;28;20212;-69
2022/06/16 07:38:23;;;;;;;8.23;4.55;;;;;;;24.60;63.67;96327.88;5048997;28;20221;-69
2022/06/16 07:40:49;;;;;;;7.93;4.25;;;;;;;24.95;62.85;96322.63;5049169;28;20220;-69
2022/06/16 07:43:16;;;;;;;10.75;4.60;;;;;;;25.02;62.06;96325.09;5048773;28;20201;-69
2022/06/16 07:45:42;;;;;;;6.53;4.03;;;;;;;25.07;61.22;96317.84;5049255;28;20229;-70
2022/06/16 07:48:09;;;;;;;8.93;4.28;;;;;;;25.33;60.71;96314.97;5048641;28;20221;-70
2022/06/16 07:50:37;;;;;;;6.22;3.78;;;;;;;25.88;58.83;96321.25;5049152;28;20197;-69
2022/06/16 07:53:04;;;;;;;6.07;3.72;;;;;;;25.45;58.05;96320.13;5049875;28;20213;-69
2022/06/16 07:55:30;;;;;;;5.82;4.20;;;;;;;25.39;57.18;96318.47;5049688;28;20201;-70
2022/06/16 07:57:57;;;;;;;8.15;3.90;;;;;;;25.69;56.08;96323.91;5049274;28;20217;-70
2022/06/16 08:00:27;;;;;;;8.38;3.95;;;;;;;26.04;56.28;96313.97;5048899;28;20874;-70
2022/06/16 08:02:55;;;;;;;7.80;3.70;;;;;;;26.06;55.26;96315.31;5048492;28;20205;-70
2022/06/16 08:05:22;;;;;;;7.75;4.05;;;;;;;26.21;55.12;96315.31;5048898;28;20625;-70
2022/06/16 08:07:50;;;;;;;5.15;3.58;;;;;;;26.73;53.23;96323.88;5048349;28;21248;-69
2022/06/16 08:10:19;;;;;;;9.90;4.03;;;;;;;26.70;53.26;96313.63;5049113;28;20197;-69
2022/06/16 08:12:46;;;;;;;6.00;3.55;;;;;;;26.67;55.23;96312.28;5048355;28;20837;-70
2022/06/16 08:15:13;;;;;;;9.05;4.22;;;;;;;26.53;52.03;96313.94;5049136;28;20224;-70
2022/06/16 08:17:41;;;;;;;6.47;3.75;;;;;;;26.92;52.17;96311.38;5051279;28;20225;-69
2022/06/16 08:20:09;;;;;;;6.80;3.70;;;;;;;26.82;52.98;96317.63;5052219;28;20212;-67
2022/06/16 08:22:37;;;;;;;6.70;3.80;;;;;;;26.86;51.95;96315.16;5051763;28;20205;-67
2022/06/16 08:25:06;;;;;;;7.32;3.40;;;;;;;27.16;49.65;96322.13;5048556;28;20208;-67
2022/06/16 08:27:35;;;;;;;8.65;3.97;;;;;;;27.17;52.18;96323.72;5048425;28;20236;-71
2022/06/16 08:30:05;;;;;;;5.15;3.13;;;;;;;26.61;50.68;96331.47;5048420;28;20208;-70
2022/06/16 08:32:31;;;;;;;6.15;3.70;;;;;;;26.76;50.89;96326.84;5048035;28;20201;-70
2022/06/16 08:34:58;;;;;;;10.07;4.00;;;;;;;26.61;50.72;96343.09;5048355;28;20201;-70
2022/06/16 08:37:25;;;;;;;7.72;3.78;;;;;;;26.62;49.70;96338.53;5048798;28;20229;-70
2022/06/16 08:39:52;;;;;;;4.38;3.30;;;;;;;26.74;50.12;96347.94;5048137;28;20665;-69
2022/06/16 08:42:24;;;;;;;7.72;3.63;;;;;;;27.00;50.51;96337.88;5047948;28;20209;-70
2022/06/16 08:44:57;;;;;;;6.95;3.30;;;;;;;27.25;51.54;96336.69;5049113;28;20215;-70
2022/06/16 08:47:34;;;;;;;6.05;3.55;;;;;;;27.66;50.59;96346.22;5051945;28;21195;-71
2022/06/16 08:50:09;;;;;;;7.65;3.45;;;;;;;27.87;49.97;96342.28;5052384;28;20215;-69
2022/06/16 08:52:44;;;;;;;5.72;3.42;;;;;;;27.62;49.86;96355.97;5052043;28;20218;-69
2022/06/16 08:55:18;;;;;;;5.20;3.70;;;;;;;27.36;50.83;96354.47;5052803;28;20200;-70
2022/06/16 08:57:55;;;;;;;8.55;3.80;;;;;;;27.34;49.54;96351.25;5052447;28;20225;-69
2022/06/16 09:00:31;;;;;;;8.52;3.47;;;;;;;27.44;50.52;96358.50;5052023;28;20771;-69
2022/06/16 09:03:00;;;;;;;5.63;3.60;;;;;;;27.90;49.90;96358.78;5051416;28;20259;-69
2022/06/16 09:05:44;;;;;;;10.40;3.97;;;;;;;28.05;48.15;96363.28;5054167;28;20235;-69
2022/06/16 09:08:28;;;;;;;4.72;3.33;;;;;;;28.05;50.61;96357.88;5054682;28;21248;-69
2022/06/16 09:11:04;;;;;;;5.50;3.83;;;;;;;28.02;50.36;96366.56;5052408;28;20212;-70
2022/06/16 09:14:07;;;;;;;8.63;4.40;;;;;;;28.29;49.60;96370.44;5051500;28;20196;-70
2022/06/16 09:16:45;;;;;;;6.65;3.60;;;;;;;28.12;48.12;96378.13;5052749;28;20217;-70
2022/06/16 09:19:34;;;;;;;6.80;3.63;;;;;;;27.92;51.96;96380.19;5052008;28;20672;-70
2022/06/16 09:22:13;;;;;;;5.95;3.63;;;;;;;27.90;50.45;96388.59;5052247;28;20216;-70
2022/06/16 09:25:03;;;;;;;6.10;4.00;;;;;;;27.73;51.79;96380.00;5051805;28;20288;-70
2022/06/16 09:27:34;;;;;;;5.78;3.80;;;;;;;27.57;52.33;96388.53;5052204;28;20229;-70
2022/06/16 09:30:08;;;;;;;7.38;4.03;;;;;;;27.64;50.10;96394.44;5052040;28;20205;-70
2022/06/16 09:32:39;;;;;;;6.32;3.70;;;;;;;27.62;52.02;96393.88;5052419;28;20692;-69
2022/06/16 09:35:12;;;;;;;6.65;3.85;;;;;;;27.90;49.96;96395.91;5052472;28;20205;-70
2022/06/16 09:37:46;;;;;;;6.82;3.50;;;;;;;28.23;49.07;96398.66;5051505;28;20244;-70
2022/06/16 09:40:16;;;;;;;5.18;3.28;;;;;;;28.56;46.88;96400.56;5051883;28;20204;-70
2022/06/16 09:42:50;;;;;;;8.30;3.38;;;;;;;28.48;44.82;96399.25;5050872;28;20582;-71
2022/06/16 09:45:25;;;;;;;5.72;3.45;;;;;;;28.74;43.84;96411.56;5051649;28;20213;-71
2022/06/16 09:48:04;;;;;;;5.18;3.17;;;;;;;28.88;41.93;96398.91;5052064;28;20233;-70
2022/06/16 09:50:39;;;;;;;7.50;6.28;;;;;;;28.66;38.76;96397.75;5051847;28;20205;-71
2022/06/16 09:53:13;;;;;;;3.65;2.78;;;;;;;28.85;37.36;96404.91;5052112;28;20219;-71
2022/06/16 09:55:44;;;;;;;4.80;3.00;;;;;;;28.76;38.19;96406.63;5051802;28;20765;-69
2022/06/16 09:58:17;;;;;;;4.40;2.60;;;;;;;29.00;36.71;96402.06;5051822;28;20236;-71
2022/06/16 10:00:45;;;;;;;4.97;2.70;;;;;;;29.04;37.92;96409.31;5052193;28;20217;-71
2022/06/16 10:03:24;;;;;;;7.13;2.60;;;;;;;29.29;37.79;96405.50;5051494;28;20267;-71
2022/06/16 10:06:01;;;;;;;3.92;2.90;;;;;;;29.24;36.73;96400.97;5051777;28;20228;-71
2022/06/16 10:08:33;;;;;;;12.32;3.00;;;;;;;29.18;35.74;96412.97;5051330;28;20274;-70
2022/06/16 10:11:09;;;;;;;5.75;2.83;;;;;;;28.97;37.02;96403.44;5051296;28;20259;-70
2022/06/16 10:13:42;;;;;;;4.47;2.58;;;;;;;29.61;38.26;96404.56;5050594;28;20310;-70
2022/06/16 10:16:13;;;;;;;4.28;3.25;;;;;;;29.00;37.87;96402.06;5051442;28;20212;-69
2022/06/16 10:18:40;;;;;;;3.30;2.67;;;;;;;28.66;38.27;96414.03;5051305;28;20668;-71
2022/06/16 10:21:08;;;;;;;5.05;2.97;;;;;;;28.50;39.31;96420.66;5051404;28;20767;-71
2022/06/16 10:23:38;;;;;;;3.97;3.10;;;;;;;28.82;38.73;96420.94;5050802;28;20210;-72
2022/06/16 10:26:07;;;;;;;8.00;3.50;;;;;;;28.82;39.58;96416.34;5050928;28;20229;-69
2022/06/16 10:28:38;;;;;;;4.93;3.05;;;;;;;28.43;39.28;96417.50;5050579;28;20225;-69
2022/06/16 10:31:07;;;;;;;5.13;3.35;;;;;;;28.35;39.38;96418.91;5050612;28;20208;-70
2022/06/16 10:33:36;;;;;;;5.78;3.20;;;;;;;28.33;40.33;96416.75;5050176;28;20204;-70
2022/06/16 10:36:07;;;;;;;6.72;3.20;;;;;;;28.29;40.10;96413.00;5050245;28;20213;-69
2022/06/16 10:38:36;;;;;;;4.53;2.95;;;;;;;28.74;40.37;96418.88;5050108;28;20229;-71
2022/06/16 10:41:06;;;;;;;6.25;3.60;;;;;;;28.86;44.34;96406.53;5050198;28;20204;-69
2022/06/16 10:43:38;;;;;;;5.82;3.20;;;;;;;28.66;39.57;96409.41;5049789;28;20209;-69
2022/06/16 10:46:11;;;;;;;4.15;3.15;;;;;;;28.41;40.89;96415.06;5050086;28;20252;-69
2022/06/16 10:48:46;;;;;;;7.15;3.30;;;;;;;28.56;39.72;96409.50;5050220;28;20216;-69
2022/06/16 10:51:15;;;;;;;4.00;2.60;;;;;;;28.83;37.61;96412.56;5050055;28;20204;-69
2022/06/16 10:53:45;;;;;;;4.28;3.08;;;;;;;28.78;37.80;96415.31;5049390;28;20197;-70
2022/06/16 10:56:17;;;;;;;5.75;2.80;;;;;;;28.73;37.88;96412.66;5049986;28;20216;-69
2022/06/16 10:58:47;;;;;;;10.77;3.17;;;;;;;28.82;38.21;96415.53;5049670;28;20308;-70
2022/06/16 11:01:17;;;;;;;6.95;3.10;;;;;;;28.76;36.98;96419.41;5049994;28;20247;-70
2022/06/16 11:03:47;;;;;;;10.77;3.15;;;;;;;28.98;37.48;96415.91;5049209;28;20284;-70
2022/06/16 11:06:17;;;;;;;5.90;2.80;;;;;;;28.95;37.31;96415.66;5049729;28;20231;-70
2022/06/16 11:08:48;;;;;;;3.90;2.63;;;;;;;29.03;37.13;96407.72;5048577;28;20197;-70
2022/06/16 11:11:19;;;;;;;3.72;2.88;;;;;;;29.44;36.63;96413.50;5049609;28;20205;-72
2022/06/16 11:13:50;;;;;;;3.92;2.58;;;;;;;29.80;36.41;96413.56;5049256;28;20205;-70
2022/06/16 11:16:26;;;;;;;9.63;3.45;;;;;;;29.76;37.48;96417.16;5049618;28;20209;-71
2022/06/16 11:18:58;;;;;;;9.20;3.10;;;;;;;29.84;36.96;96419.22;5049651;28;20204;-70
2022/06/16 11:21:29;;;;;;;5.35;3.08;;;;;;;29.78;37.87;96418.47;5050018;28;21264;-71
2022/06/16 11:23:58;;;;;;;4.20;2.83;;;;;;;29.74;37.08;96414.72;5048930;28;20205;-71
2022/06/16 11:26:28;;;;;;;4.47;2.60;;;;;;;29.73;36.68;96415.81;5049434;28;20302;-71
2022/06/16 11:28:57;;;;;;;4.10;2.72;;;;;;;29.95;36.33;96424.25;5049190;28;20262;-70
2022/06/16 11:31:35;;;;;;;3.45;2.10;;;;;;;30.03;33.82;96423.59;5049372;28;20220;-71
2022/06/16 11:34:12;;;;;;;3.70;2.58;;;;;;;30.26;32.64;96428.94;5048746;28;20212;-71
2022/06/16 11:37:06;;;;;;;3.95;2.03;;;;;;;30.33;33.94;96431.28;5048943;28;20231;-70
2022/06/16 11:39:44;;;;;;;6.65;2.20;;;;;;;30.28;34.45;96442.25;5049152;28;20227;-71
2022/06/16 11:42:21;;;;;;;3.88;2.13;;;;;;;30.56;34.81;96435.84;5049018;28;20224;-71
2022/06/16 11:44:59;;;;;;;4.93;2.63;;;;;;;30.64;33.76;96435.16;5049250;28;20205;-71
2022/06/16 11:47:35;;;;;;;6.18;2.47;;;;;;;30.39;33.97;96441.00;5048837;28;20697;-71
2022/06/16 11:50:10;;;;;;;4.95;2.17;;;;;;;30.32;33.73;96438.66;5053171;28;20692;-70
2022/06/16 11:52:44;;;;;;;3.30;2.15;;;;;;;30.60;34.04;96440.41;5052586;28;20201;-69
2022/06/16 11:55:25;;;;;;;4.88;2.30;;;;;;;30.94;34.18;96436.31;5054710;28;20197;-70
2022/06/16 11:58:06;;;;;;;7.13;2.17;;;;;;;30.47;34.37;96441.16;5052680;28;20232;-68
2022/06/16 12:00:38;;;;;;;3.33;2.22;;;;;;;30.17;33.91;96435.34;5050832;28;20213;-69
2022/06/16 12:03:38;;;;;;;3.55;2.33;;;;;;;30.48;33.42;96447.41;5048373;28;20214;-71